createdAt,value
2023-04-19T00:02:29.273Z,3.93
2023-04-19T00:05:34.626Z,3.87
2023-04-19T00:08:38.168Z,3.73
2023-04-19T00:11:42.214Z,3.97
2023-04-19T00:14:45.804Z,3.57
2023-04-19T00:17:49.575Z,3.70
2023-04-19T00:20:54.669Z,4.10
2023-04-19T00:23:58.152Z,4.47
2023-04-19T00:27:02.544Z,4.00
2023-04-19T00:30:07.456Z,4.10
2023-04-19T00:33:13.288Z,4.50
2023-04-19T00:36:18.478Z,4.10
2023-04-19T00:39:23.704Z,4.00
2023-04-19T00:42:27.239Z,4.30
2023-04-19T00:45:30.829Z,4.40
2023-04-19T00:48:36.364Z,4.40
2023-04-19T00:51:41.359Z,4.57
2023-04-19T00:54:45.077Z,4.17
2023-04-19T00:57:52.309Z,4.17
2023-04-19T01:00:55.983Z,4.60
2023-04-19T01:03:59.961Z,3.43
2023-04-19T01:07:05.046Z,3.87
2023-04-19T01:10:09.039Z,4.40
2023-04-19T01:13:12.634Z,4.40
2023-04-19T01:16:16.304Z,4.20
2023-04-19T01:19:19.900Z,4.17
2023-04-19T01:22:24.934Z,3.73
2023-04-19T01:25:28.708Z,3.03
2023-04-19T01:28:32.423Z,3.23
2023-04-19T01:31:36.212Z,2.73
2023-04-19T01:34:40.913Z,3.00
2023-04-19T01:37:45.801Z,2.33
2023-04-19T01:40:49.275Z,2.10
2023-04-19T01:43:52.855Z,2.20
2023-04-19T01:46:56.573Z,2.23
2023-04-19T01:50:00.249Z,2.47
2023-04-19T01:53:05.290Z,2.03
2023-04-19T01:56:09.495Z,1.60
2023-04-19T01:59:14.004Z,1.77
2023-04-19T02:02:17.654Z,2.03
2023-04-19T02:05:21.249Z,1.60
2023-04-19T02:08:26.371Z,1.90
2023-04-19T02:11:30.044Z,1.50
2023-04-19T02:14:33.648Z,1.70
2023-04-19T02:17:37.403Z,1.33
2023-04-19T02:20:40.993Z,2.07
2023-04-19T02:23:45.938Z,1.33
2023-04-19T02:26:49.563Z,1.90
2023-04-19T02:29:52.987Z,1.60
2023-04-19T02:32:56.761Z,1.47
2023-04-19T02:36:00.300Z,1.30
2023-04-19T02:39:05.830Z,1.60
2023-04-19T02:42:09.427Z,1.47
2023-04-19T02:45:13.209Z,1.47
2023-04-19T02:48:16.780Z,1.30
2023-04-19T02:51:20.456Z,1.43
2023-04-19T02:54:25.656Z,1.40
2023-04-19T02:57:29.778Z,1.57
2023-04-19T03:00:33.374Z,2.00
2023-04-19T03:03:43.488Z,1.50
2023-04-19T03:06:47.285Z,1.60
2023-04-19T03:09:52.495Z,1.50
2023-04-19T03:12:56.866Z,1.90
2023-04-19T03:16:00.743Z,1.53
2023-04-19T03:19:06.064Z,1.87
2023-04-19T03:22:15.287Z,2.70
2023-04-19T03:25:21.213Z,2.73
2023-04-19T03:28:32.231Z,2.50
2023-04-19T03:31:53.178Z,2.70
2023-04-19T03:34:56.803Z,2.17
2023-04-19T03:38:00.591Z,2.60
2023-04-19T03:41:05.718Z,2.30
2023-04-19T03:44:13.975Z,1.80
2023-04-19T03:47:20.600Z,2.37
2023-04-19T03:50:26.435Z,2.00
2023-04-19T03:53:32.599Z,1.73
2023-04-19T03:56:38.360Z,1.70
2023-04-19T03:59:42.738Z,1.50
2023-04-19T04:02:47.495Z,1.50
2023-04-19T04:05:51.512Z,1.63
2023-04-19T04:08:55.284Z,1.40
2023-04-19T04:12:00.511Z,1.10
2023-04-19T04:15:04.406Z,1.30
2023-04-19T04:18:11.128Z,1.30
2023-04-19T04:21:15.163Z,1.37
2023-04-19T04:24:23.599Z,1.40
2023-04-19T04:28:04.218Z,1.50
2023-04-19T04:31:08.306Z,1.43
2023-04-19T04:34:12.825Z,2.00
2023-04-19T04:37:26.101Z,1.50
2023-04-19T04:40:30.031Z,1.40
2023-04-19T04:43:35.689Z,1.30
2023-04-19T04:46:39.472Z,1.23
2023-04-19T04:49:43.591Z,1.23
2023-04-19T04:52:47.416Z,1.60
2023-04-19T04:55:59.183Z,2.30
2023-04-19T04:59:04.565Z,1.70
2023-04-19T05:02:14.339Z,1.60
2023-04-19T05:05:18.356Z,1.70
2023-04-19T05:08:22.129Z,1.67
2023-04-19T05:11:26.196Z,1.50
2023-04-19T05:14:32.286Z,1.40
2023-04-19T05:17:36.414Z,1.40
2023-04-19T05:20:40.423Z,1.60
2023-04-19T05:23:54.749Z,1.90
2023-04-19T05:26:59.906Z,2.17
2023-04-19T05:30:05.535Z,1.70
2023-04-19T05:33:10.825Z,1.70
2023-04-19T05:36:15.616Z,2.30
2023-04-19T05:39:19.459Z,1.83
2023-04-19T05:42:23.179Z,1.50
2023-04-19T05:45:28.426Z,1.80
2023-04-19T05:48:32.157Z,1.47
2023-04-19T05:51:58.620Z,1.60
2023-04-19T05:55:23.883Z,1.77
2023-04-19T05:58:27.944Z,1.37
2023-04-19T06:01:33.765Z,1.77
2023-04-19T06:04:37.901Z,1.70
2023-04-19T06:07:47.224Z,1.80
2023-04-19T06:11:02.226Z,1.90
2023-04-19T06:14:12.624Z,1.60
2023-04-19T06:17:23.584Z,1.30
2023-04-19T06:20:27.369Z,1.90
2023-04-19T06:23:30.991Z,1.50
2023-04-19T06:26:34.809Z,2.00
2023-04-19T06:29:38.592Z,1.80
2023-04-19T06:32:43.976Z,1.80
2023-04-19T06:35:47.648Z,1.80
2023-04-19T06:38:51.403Z,1.80
2023-04-19T06:41:55.044Z,1.57
2023-04-19T06:44:59.392Z,2.33
2023-04-19T06:48:04.870Z,2.03
2023-04-19T06:51:08.654Z,1.80
2023-04-19T06:54:12.329Z,2.10
2023-04-19T06:57:16.039Z,2.53
2023-04-19T07:00:20.423Z,2.63
2023-04-19T07:03:25.801Z,2.60
2023-04-19T07:06:29.921Z,2.40
2023-04-19T07:09:33.544Z,2.13
2023-04-19T07:12:37.218Z,1.63
2023-04-19T07:15:41.025Z,1.57
2023-04-19T07:18:46.253Z,1.63
2023-04-19T07:21:50.159Z,2.30
2023-04-19T07:24:54.127Z,2.07
2023-04-19T07:27:57.908Z,1.63
2023-04-19T07:31:01.918Z,2.23
2023-04-19T07:34:06.983Z,2.20
2023-04-19T07:37:10.871Z,2.80
2023-04-19T07:40:15.201Z,2.83
2023-04-19T07:43:18.949Z,2.70
2023-04-19T07:46:22.667Z,2.50
2023-04-19T07:49:27.856Z,2.20
2023-04-19T07:52:31.542Z,2.33
2023-04-19T07:55:35.533Z,2.30
2023-04-19T07:58:41.753Z,2.27
2023-04-19T08:01:45.777Z,2.40
2023-04-19T08:04:52.339Z,2.00
2023-04-19T08:07:57.075Z,2.03
2023-04-19T08:11:02.488Z,2.00
2023-04-19T08:14:26.829Z,1.70
2023-04-19T08:17:37.074Z,1.60
2023-04-19T08:20:47.703Z,1.80
2023-04-19T08:23:54.164Z,1.97
2023-04-19T08:26:59.966Z,2.07
2023-04-19T08:30:04.799Z,1.90
2023-04-19T08:33:08.682Z,1.60
2023-04-19T08:36:16.977Z,1.60
2023-04-19T08:39:32.479Z,1.50
2023-04-19T08:42:37.575Z,2.00
2023-04-19T08:45:41.794Z,2.27
2023-04-19T08:48:46.773Z,1.87
2023-04-19T08:51:52.908Z,1.73
2023-04-19T08:54:57.442Z,1.73
2023-04-19T08:58:04.118Z,1.87
2023-04-19T09:01:17.058Z,1.87
2023-04-19T09:04:36.835Z,2.17
2023-04-19T09:07:43.676Z,1.90
2023-04-19T09:10:55.276Z,1.80
2023-04-19T09:14:09.819Z,1.60
2023-04-19T09:17:17.887Z,1.87
2023-04-19T09:20:38.407Z,1.70
2023-04-19T09:23:49.010Z,1.73
2023-04-19T09:26:58.134Z,2.10
2023-04-19T09:30:03.647Z,1.93
2023-04-19T09:33:07.708Z,2.00
2023-04-19T09:36:13.705Z,2.77
2023-04-19T09:39:30.186Z,2.30
2023-04-19T09:45:53.618Z,2.40
2023-04-19T09:48:58.804Z,2.50
2023-04-19T09:52:05.321Z,1.90
2023-04-19T09:55:22.180Z,1.67
2023-04-19T09:58:38.269Z,1.77
2023-04-19T10:01:56.606Z,1.67
2023-04-19T10:05:16.313Z,2.15
2023-04-19T10:08:24.034Z,2.50
2023-04-19T10:11:37.242Z,2.00
2023-04-19T10:14:42.070Z,1.80
2023-04-19T10:17:45.881Z,1.80
2023-04-19T10:20:54.617Z,2.50
2023-04-19T10:23:59.139Z,1.80
2023-04-19T10:27:14.944Z,1.77
2023-04-19T10:30:20.658Z,1.90
2023-04-19T10:33:29.391Z,2.42
2023-04-19T10:36:33.969Z,1.92
2023-04-19T10:39:45.295Z,1.80
2023-04-19T10:43:20.608Z,1.83
2023-04-19T10:46:40.222Z,2.90
2023-04-19T10:49:47.651Z,2.20
2023-04-19T10:52:51.335Z,1.50
2023-04-19T10:55:55.003Z,1.40
2023-04-19T10:59:26.099Z,1.70
2023-04-19T11:02:31.132Z,1.52
2023-04-19T11:06:27.502Z,1.80
2023-04-19T11:09:34.793Z,1.55
2023-04-19T11:12:38.789Z,1.30
2023-04-19T11:15:46.144Z,1.23
2023-04-19T11:18:50.274Z,1.50
2023-04-19T11:21:53.917Z,1.58
2023-04-19T11:24:57.717Z,1.40
2023-04-19T11:28:02.124Z,1.27
2023-04-19T11:31:07.698Z,1.55
2023-04-19T11:34:11.385Z,1.48
2023-04-19T11:37:15.059Z,1.10
2023-04-19T11:40:20.444Z,1.40
2023-04-19T11:43:24.160Z,1.40
2023-04-19T11:46:29.396Z,1.63
2023-04-19T11:49:34.503Z,1.77
2023-04-19T11:52:38.288Z,1.50
2023-04-19T11:55:44.749Z,1.52
2023-04-19T11:58:49.393Z,1.50
2023-04-19T12:01:54.579Z,2.50
2023-04-19T12:05:08.673Z,2.22
2023-04-19T12:08:12.381Z,1.70
2023-04-19T12:11:17.029Z,1.92
2023-04-19T12:14:23.143Z,2.30
2023-04-19T12:17:28.781Z,1.43
2023-04-19T12:20:36.817Z,1.17
2023-04-19T12:23:40.682Z,1.47
2023-04-19T12:26:56.245Z,1.70
2023-04-19T12:30:00.217Z,1.73
2023-04-19T12:33:06.245Z,1.90
2023-04-19T12:36:10.706Z,2.00
2023-04-19T12:39:14.752Z,2.23
2023-04-19T12:42:18.604Z,2.33
2023-04-19T12:45:22.656Z,3.13
2023-04-19T12:48:27.902Z,2.67
2023-04-19T12:51:32.035Z,2.37
2023-04-19T12:54:36.046Z,3.03
2023-04-19T12:57:39.732Z,2.30
2023-04-19T13:00:43.495Z,2.50
2023-04-19T13:03:48.833Z,1.90
2023-04-19T13:06:52.714Z,2.07
2023-04-19T13:09:57.088Z,1.83
2023-04-19T13:13:00.922Z,1.97
2023-04-19T13:16:04.674Z,2.13
2023-04-19T13:19:09.887Z,1.83
2023-04-19T13:22:13.593Z,2.23
2023-04-19T13:25:17.397Z,2.43
2023-04-19T13:28:21.103Z,3.10
2023-04-19T13:31:24.848Z,4.37
2023-04-19T13:34:30.396Z,4.53
2023-04-19T13:37:34.154Z,5.00
2023-04-19T13:40:37.800Z,3.90
2023-04-19T13:43:41.538Z,2.60
2023-04-19T13:46:45.341Z,1.90
2023-04-19T13:49:52.457Z,1.80
2023-04-19T13:52:56.347Z,1.93
2023-04-19T13:56:00.154Z,1.87
2023-04-19T13:59:04.077Z,1.70
2023-04-19T14:02:07.949Z,2.27
2023-04-19T14:05:13.206Z,1.77
2023-04-19T14:08:16.979Z,2.27
2023-04-19T14:11:21.087Z,2.17
2023-04-19T14:14:24.858Z,2.27
2023-04-19T14:17:28.502Z,2.70
2023-04-19T14:20:33.676Z,2.50
2023-04-19T14:23:37.389Z,2.77
2023-04-19T14:26:41.187Z,2.20
2023-04-19T14:29:44.841Z,2.50
2023-04-19T14:32:48.789Z,2.17
2023-04-19T14:35:53.897Z,3.37
2023-04-19T14:38:57.562Z,3.30
2023-04-19T14:42:01.316Z,3.00
2023-04-19T14:45:05.318Z,3.23
2023-04-19T14:48:09.036Z,2.67
2023-04-19T14:51:14.262Z,2.90
2023-04-19T14:54:18.019Z,3.50
2023-04-19T14:57:21.752Z,2.20
2023-04-19T15:00:25.526Z,2.50
2023-04-19T15:03:29.308Z,3.00
2023-04-19T15:06:34.703Z,2.63
2023-04-19T15:09:38.445Z,2.10
2023-04-19T15:12:42.341Z,2.20
2023-04-19T15:15:45.957Z,2.53
2023-04-19T15:18:49.810Z,1.90
2023-04-19T15:21:54.896Z,2.13
2023-04-19T15:24:58.525Z,2.43
2023-04-19T15:28:02.265Z,3.00
2023-04-19T15:31:07.956Z,2.70
2023-04-19T15:34:11.761Z,2.87
2023-04-19T15:37:16.945Z,3.30
2023-04-19T15:40:21.518Z,3.40
2023-04-19T15:43:27.701Z,3.50
2023-04-19T15:46:31.433Z,3.70
2023-04-19T15:49:35.255Z,3.30
2023-04-19T15:52:40.319Z,3.50
2023-04-19T15:55:44.488Z,4.13
2023-04-19T15:58:48.169Z,4.30
2023-04-19T16:01:52.028Z,3.73
2023-04-19T16:04:55.989Z,3.33
2023-04-19T16:08:05.932Z,3.30
2023-04-19T16:11:09.815Z,4.10
2023-04-19T16:14:13.490Z,4.03
2023-04-19T16:17:17.229Z,3.90
2023-04-19T16:20:21.843Z,3.93
2023-04-19T16:23:27.256Z,3.60
2023-04-19T16:26:30.939Z,4.07
2023-04-19T16:29:34.956Z,4.10
2023-04-19T16:32:38.752Z,4.13
2023-04-19T16:35:42.380Z,3.83
2023-04-19T16:38:47.494Z,3.80
2023-04-19T16:41:51.169Z,3.50
2023-04-19T16:44:54.904Z,4.13
2023-04-19T16:47:58.641Z,4.30
2023-04-19T16:51:02.430Z,3.53
2023-04-19T16:54:07.764Z,3.47
2023-04-19T16:57:11.863Z,3.80
2023-04-19T17:00:16.530Z,4.10
2023-04-19T17:03:20.556Z,3.93
2023-04-19T17:06:24.341Z,3.70
2023-04-19T17:09:29.905Z,3.40
2023-04-19T17:12:33.520Z,4.00
2023-04-19T17:15:39.107Z,4.80
2023-04-19T17:18:42.874Z,4.17
2023-04-19T17:21:46.536Z,5.00
2023-04-19T17:24:51.766Z,4.17
2023-04-19T17:27:55.457Z,4.83
2023-04-19T17:30:59.198Z,5.53
2023-04-19T17:34:02.949Z,4.90
2023-04-19T17:37:06.668Z,5.50
2023-04-19T17:40:12.996Z,6.83
2023-04-19T17:43:16.706Z,7.70
2023-04-19T17:46:21.071Z,7.97
2023-04-19T17:49:26.777Z,9.10
2023-04-19T17:52:30.491Z,8.33
2023-04-19T17:55:35.857Z,7.93
2023-04-19T17:58:39.654Z,7.43
2023-04-19T18:01:43.407Z,7.70
2023-04-19T18:04:47.395Z,7.43
2023-04-19T18:07:51.507Z,7.57
2023-04-19T18:10:56.655Z,8.07
2023-04-19T18:14:00.384Z,6.33
2023-04-19T18:17:05.817Z,7.40
2023-04-19T18:20:12.451Z,8.20
2023-04-19T18:23:17.314Z,7.90
2023-04-19T18:26:22.790Z,7.17
2023-04-19T18:29:26.464Z,7.43
2023-04-19T18:32:32.077Z,7.63
2023-04-19T18:35:36.854Z,7.20
2023-04-19T18:38:40.843Z,5.47
2023-04-19T18:41:46.012Z,5.27
2023-04-19T18:44:54.301Z,5.73
2023-04-19T18:47:58.559Z,6.80
2023-04-19T18:51:02.454Z,8.03
2023-04-19T18:54:06.362Z,8.77
2023-04-19T18:57:23.109Z,9.90
2023-04-19T19:00:28.061Z,8.07
2023-04-19T19:03:56.788Z,7.10
2023-04-19T19:06:56.875Z,7.67
2023-04-19T19:10:10.741Z,7.60
2023-04-19T19:13:23.117Z,7.57
2023-04-19T19:16:27.485Z,7.77
2023-04-19T19:19:31.459Z,8.07
2023-04-19T19:22:35.277Z,8.07
2023-04-19T19:25:39.010Z,6.37
2023-04-19T19:28:44.015Z,6.60
2023-04-19T19:31:47.780Z,7.77
2023-04-19T19:34:56.284Z,6.70
2023-04-19T19:38:04.769Z,6.53
2023-04-19T19:41:49.528Z,6.27
2023-04-19T19:44:33.815Z,7.07
2023-04-19T19:47:43.411Z,6.50
2023-04-19T19:51:17.321Z,6.43
2023-04-19T19:54:12.881Z,7.67
2023-04-19T20:00:42.881Z,10.57
2023-04-19T20:03:49.241Z,8.93
2023-04-19T20:09:59.700Z,7.53
2023-04-19T20:13:03.670Z,8.80
2023-04-19T20:16:10.224Z,7.07
2023-04-19T20:19:14.832Z,7.70
2023-04-19T20:22:18.584Z,8.17
2023-04-19T20:25:22.254Z,11.37
2023-04-19T20:28:26.763Z,11.27
2023-04-19T20:31:32.137Z,11.97
2023-04-19T20:34:35.844Z,11.07
2023-04-19T20:37:41.145Z,12.17
2023-04-19T20:40:44.866Z,13.03
2023-04-19T20:43:48.616Z,11.83
2023-04-19T20:46:53.957Z,11.87
2023-04-19T20:49:57.689Z,10.27
2023-04-19T20:53:01.602Z,9.30
2023-04-19T20:56:05.497Z,11.70
2023-04-19T20:59:09.176Z,9.67
2023-04-19T21:02:14.365Z,8.87
2023-04-19T21:05:18.023Z,9.80
2023-04-19T21:08:21.744Z,10.40
2023-04-19T21:11:25.690Z,9.87
2023-04-19T21:14:30.395Z,7.77
2023-04-19T21:17:35.721Z,7.70
2023-04-19T21:20:39.743Z,7.50
2023-04-19T21:23:43.527Z,7.83
2023-04-19T21:26:47.356Z,7.43
2023-04-19T21:29:51.114Z,7.47
2023-04-19T21:32:56.327Z,9.07
2023-04-19T21:36:00.168Z,8.93
2023-04-19T21:39:04.332Z,16.50
2023-04-19T21:42:08.239Z,12.70
2023-04-19T21:45:12.952Z,12.97
2023-04-19T21:48:18.169Z,11.80
2023-04-19T21:51:21.872Z,8.93
2023-04-19T21:54:33.452Z,8.03
2023-04-19T21:57:38.589Z,9.17
2023-04-19T22:00:42.455Z,10.00
2023-04-19T22:03:47.837Z,13.10
2023-04-19T22:06:51.775Z,12.93
2023-04-19T22:09:57.150Z,11.60
2023-04-19T22:13:02.602Z,10.93
2023-04-19T22:16:07.346Z,10.00
2023-04-19T22:19:12.885Z,8.53
2023-04-19T22:22:17.146Z,7.00
2023-04-19T22:25:21.135Z,6.13
2023-04-19T22:28:25.249Z,7.53
2023-04-19T22:31:29.020Z,8.23
2023-04-19T22:34:34.237Z,8.30
2023-04-19T22:37:38.021Z,8.10
2023-04-19T22:40:46.497Z,8.53
2023-04-19T22:43:58.821Z,9.07
2023-04-19T22:47:08.383Z,8.07
2023-04-19T22:50:23.751Z,8.17
2023-04-19T22:53:29.764Z,9.17
2023-04-19T22:56:33.795Z,9.10
2023-04-19T22:59:41.827Z,9.20
2023-04-19T23:03:00.779Z,9.10
2023-04-19T23:06:17.338Z,8.97
2023-04-19T23:09:29.879Z,8.60
2023-04-19T23:12:33.770Z,8.60
2023-04-19T23:15:37.714Z,8.07
2023-04-19T23:18:41.662Z,9.23
2023-04-19T23:21:46.807Z,8.43
2023-04-19T23:24:50.513Z,7.27
2023-04-19T23:27:54.195Z,7.67
2023-04-19T23:30:57.997Z,8.07
2023-04-19T23:34:01.730Z,7.47
2023-04-19T23:37:06.906Z,7.90
2023-04-19T23:40:11.637Z,6.90
2023-04-19T23:43:15.409Z,7.10
2023-04-19T23:46:19.106Z,7.20
2023-04-19T23:49:22.961Z,7.37
2023-04-19T23:52:27.972Z,7.20
2023-04-19T23:55:31.605Z,8.10
2023-04-19T23:58:35.315Z,8.50
